createdAt,value
2023-05-19T00:00:37.127Z,5.60
2023-05-19T00:03:05.925Z,5.97
2023-05-19T00:05:35.397Z,4.10
2023-05-19T00:08:05.497Z,5.17
2023-05-19T00:10:34.315Z,5.43
2023-05-19T00:13:03.071Z,6.03
2023-05-19T00:15:31.771Z,4.47
2023-05-19T00:18:01.972Z,5.93
2023-05-19T00:20:30.291Z,5.63
2023-05-19T00:22:58.587Z,4.73
2023-05-19T00:25:27.137Z,7.83
2023-05-19T00:27:55.120Z,3.87
2023-05-19T00:30:23.796Z,5.47
2023-05-19T00:32:52.503Z,6.53
2023-05-19T00:35:21.994Z,5.37
2023-05-19T00:37:50.071Z,6.90
2023-05-19T00:40:18.438Z,5.03
2023-05-19T00:42:46.564Z,5.40
2023-05-19T00:45:14.561Z,5.27
2023-05-19T00:47:42.596Z,6.63
2023-05-19T00:50:11.488Z,4.97
2023-05-19T00:52:40.896Z,3.80
2023-05-19T00:55:10.046Z,5.00
2023-05-19T00:57:38.780Z,5.70
2023-05-19T01:00:08.398Z,6.90
2023-05-19T01:02:38.248Z,6.37
2023-05-19T01:05:07.852Z,5.30
2023-05-19T01:07:36.726Z,7.43
2023-05-19T01:10:06.946Z,4.83
2023-05-19T01:12:35.567Z,5.03
2023-05-19T01:15:05.449Z,5.50
2023-05-19T01:17:40.507Z,4.57
2023-05-19T01:20:16.910Z,5.73
2023-05-19T01:23:15.040Z,3.87
2023-05-19T01:26:12.790Z,5.93
2023-05-19T01:29:04.187Z,5.17
2023-05-19T01:31:34.888Z,4.27
2023-05-19T01:34:05.753Z,5.97
2023-05-19T01:36:34.833Z,8.33
2023-05-19T01:39:03.911Z,8.27
2023-05-19T01:41:34.232Z,6.23
2023-05-19T01:44:02.347Z,4.60
2023-05-19T01:46:30.435Z,4.77
2023-05-19T01:49:00.580Z,7.73
2023-05-19T01:51:29.518Z,3.87
2023-05-19T01:53:57.589Z,5.87
2023-05-19T01:56:33.447Z,4.07
2023-05-19T01:59:11.609Z,9.93
2023-05-19T02:01:47.408Z,6.20
2023-05-19T02:04:26.018Z,4.93
2023-05-19T02:07:02.304Z,6.70
2023-05-19T02:09:41.885Z,7.33
2023-05-19T02:12:16.227Z,4.17
2023-05-19T02:14:51.386Z,4.53
2023-05-19T02:17:21.390Z,4.90
2023-05-19T02:19:51.723Z,4.97
2023-05-19T02:22:19.849Z,7.13
2023-05-19T02:24:51.563Z,6.03
2023-05-19T02:27:19.752Z,7.20
2023-05-19T02:29:47.781Z,5.93
2023-05-19T02:32:16.324Z,5.97
2023-05-19T02:34:45.614Z,8.63
2023-05-19T02:37:15.467Z,6.23
2023-05-19T02:39:43.541Z,6.27
2023-05-19T02:42:12.341Z,5.53
2023-05-19T02:44:40.389Z,6.03
2023-05-19T02:47:08.520Z,7.13
2023-05-19T02:49:36.849Z,4.67
2023-05-19T02:52:05.250Z,6.43
2023-05-19T02:54:35.641Z,7.63
2023-05-19T02:57:03.777Z,6.20
2023-05-19T02:59:32.222Z,6.97
2023-05-19T03:02:02.166Z,5.77
2023-05-19T03:04:30.822Z,5.20
2023-05-19T03:06:59.227Z,5.03
2023-05-19T03:09:27.358Z,5.20
2023-05-19T03:11:56.784Z,6.50
2023-05-19T03:14:25.036Z,5.67
2023-05-19T03:16:53.305Z,5.60
2023-05-19T03:19:21.682Z,6.07
2023-05-19T03:21:49.785Z,7.20
2023-05-19T03:24:18.246Z,4.50
2023-05-19T03:26:46.466Z,6.40
2023-05-19T03:29:16.461Z,6.83
2023-05-19T03:31:44.640Z,5.03
2023-05-19T03:34:12.721Z,5.63
2023-05-19T03:36:41.179Z,5.10
2023-05-19T03:39:09.421Z,5.17
2023-05-19T03:41:37.477Z,6.17
2023-05-19T03:44:05.893Z,5.57
2023-05-19T03:46:35.460Z,6.73
2023-05-19T03:49:03.520Z,5.50
2023-05-19T03:51:34.910Z,5.67
2023-05-19T03:54:03.409Z,5.73
2023-05-19T03:56:32.912Z,6.40
2023-05-19T03:59:01.135Z,5.40
2023-05-19T04:01:29.277Z,5.17
2023-05-19T04:03:58.830Z,6.10
2023-05-19T04:06:26.943Z,7.70
2023-05-19T04:08:55.045Z,7.70
2023-05-19T04:11:23.158Z,6.63
2023-05-19T04:13:51.220Z,7.80
2023-05-19T04:16:19.330Z,6.00
2023-05-19T04:18:47.471Z,5.80
2023-05-19T04:21:17.002Z,4.77
2023-05-19T04:23:45.057Z,5.17
2023-05-19T04:26:14.810Z,4.93
2023-05-19T04:28:44.580Z,4.40
2023-05-19T04:31:12.790Z,5.17
2023-05-19T04:33:41.372Z,6.60
2023-05-19T04:36:10.619Z,6.20
2023-05-19T04:38:41.137Z,7.47
2023-05-19T04:41:10.893Z,5.43
2023-05-19T04:43:41.732Z,7.10
2023-05-19T04:46:13.917Z,7.13
2023-05-19T04:48:42.717Z,7.90
2023-05-19T04:51:14.290Z,6.50
2023-05-19T04:53:44.145Z,5.67
2023-05-19T04:56:15.166Z,7.27
2023-05-19T04:58:44.872Z,8.43
2023-05-19T05:01:15.874Z,6.73
2023-05-19T05:03:44.251Z,6.20
2023-05-19T05:06:12.643Z,6.47
2023-05-19T05:08:41.461Z,7.57
2023-05-19T05:11:12.039Z,8.83
2023-05-19T05:13:40.657Z,6.03
2023-05-19T05:16:09.918Z,7.00
2023-05-19T05:18:39.375Z,7.13
2023-05-19T05:21:08.559Z,8.33
2023-05-19T05:23:38.253Z,10.40
2023-05-19T05:26:16.470Z,10.30
2023-05-19T05:28:44.543Z,6.83
2023-05-19T05:31:12.670Z,6.37
2023-05-19T05:33:41.010Z,5.67
2023-05-19T05:36:09.882Z,6.17
2023-05-19T05:38:37.899Z,6.33
2023-05-19T05:41:06.146Z,6.60
2023-05-19T05:43:35.559Z,5.53
2023-05-19T05:46:03.680Z,6.83
2023-05-19T05:48:32.288Z,5.57
2023-05-19T05:51:01.029Z,7.43
2023-05-19T05:53:32.160Z,7.23
2023-05-19T05:56:00.806Z,9.47
2023-05-19T05:58:29.665Z,7.40
2023-05-19T06:00:59.757Z,10.87
2023-05-19T06:03:28.008Z,6.50
2023-05-19T06:05:56.114Z,8.77
2023-05-19T06:08:24.212Z,10.20
2023-05-19T06:10:52.285Z,8.97
2023-05-19T06:13:24.122Z,7.07
2023-05-19T06:15:52.905Z,9.23
2023-05-19T06:18:22.470Z,8.40
2023-05-19T06:20:50.560Z,7.57
2023-05-19T06:23:18.694Z,7.90
2023-05-19T06:25:46.869Z,7.87
2023-05-19T06:28:14.917Z,7.27
2023-05-19T06:30:43.011Z,7.37
2023-05-19T06:33:11.155Z,7.30
2023-05-19T06:35:40.598Z,13.27
2023-05-19T06:38:08.753Z,7.70
2023-05-19T06:40:37.630Z,8.77
2023-05-19T06:43:06.099Z,6.67
2023-05-19T06:45:34.486Z,7.67
2023-05-19T06:48:02.794Z,8.53
2023-05-19T06:50:31.105Z,9.83
2023-05-19T06:53:00.730Z,7.07
2023-05-19T06:55:28.784Z,8.17
2023-05-19T06:57:57.231Z,8.03
2023-05-19T07:00:25.430Z,7.83
2023-05-19T07:02:53.703Z,7.60
2023-05-19T07:05:22.224Z,10.40
2023-05-19T07:07:50.276Z,6.63
2023-05-19T07:10:21.395Z,8.93
2023-05-19T07:12:49.495Z,9.07
2023-05-19T07:15:17.614Z,8.37
2023-05-19T07:17:45.773Z,6.53
2023-05-19T07:20:14.428Z,7.53
2023-05-19T07:22:42.479Z,8.80
2023-05-19T07:25:11.868Z,6.80
2023-05-19T07:27:41.259Z,7.93
2023-05-19T07:30:10.406Z,8.40
2023-05-19T07:32:38.525Z,4.67
2023-05-19T07:35:07.817Z,6.87
2023-05-19T07:37:36.067Z,8.17
2023-05-19T07:40:04.484Z,7.50
2023-05-19T07:42:32.546Z,9.33
2023-05-19T07:45:03.475Z,10.93
2023-05-19T07:47:31.870Z,9.93
2023-05-19T07:49:59.992Z,9.87
2023-05-19T07:52:29.639Z,9.00
2023-05-19T07:54:57.720Z,10.90
2023-05-19T07:57:25.824Z,7.70
2023-05-19T07:59:53.956Z,7.47
2023-05-19T08:02:23.488Z,9.90
2023-05-19T08:04:51.890Z,10.90
2023-05-19T08:07:19.997Z,7.17
2023-05-19T08:09:48.092Z,9.47
2023-05-19T08:12:16.121Z,7.37
2023-05-19T08:14:44.241Z,7.40
2023-05-19T08:17:12.385Z,5.27
2023-05-19T08:19:41.846Z,7.97
2023-05-19T08:22:09.889Z,6.43
2023-05-19T08:24:39.155Z,7.70
2023-05-19T08:27:07.288Z,7.23
2023-05-19T08:29:35.360Z,6.07
2023-05-19T08:32:03.629Z,6.53
2023-05-19T08:34:32.245Z,8.63
2023-05-19T08:37:01.664Z,5.87
2023-05-19T08:39:29.734Z,7.33
2023-05-19T08:41:57.857Z,5.90
2023-05-19T08:44:26.411Z,9.93
2023-05-19T08:46:56.231Z,5.20
2023-05-19T08:49:27.944Z,6.60
2023-05-19T08:52:03.508Z,8.80
2023-05-19T08:54:36.477Z,5.57
2023-05-19T08:57:05.635Z,6.30
2023-05-19T08:59:34.780Z,6.03
2023-05-19T09:02:03.634Z,6.27
2023-05-19T09:04:32.260Z,5.37
2023-05-19T09:07:04.139Z,7.43
2023-05-19T09:09:32.243Z,9.13
2023-05-19T09:12:00.937Z,5.43
2023-05-19T09:14:29.560Z,7.53
2023-05-19T09:16:57.830Z,9.07
2023-05-19T09:19:30.325Z,5.80
2023-05-19T09:22:04.786Z,5.37
2023-05-19T09:24:34.877Z,6.93
2023-05-19T09:27:02.991Z,5.37
2023-05-19T09:29:31.093Z,5.87
2023-05-19T09:32:00.975Z,6.40
2023-05-19T09:34:29.299Z,6.03
2023-05-19T09:36:57.841Z,5.83
2023-05-19T09:39:28.882Z,9.23
2023-05-19T09:41:58.637Z,5.43
2023-05-19T09:44:29.700Z,6.93
2023-05-19T09:46:59.791Z,6.03
2023-05-19T09:49:29.737Z,9.07
2023-05-19T09:51:58.549Z,8.33
2023-05-19T09:54:29.493Z,7.77
2023-05-19T09:57:00.955Z,7.77
2023-05-19T09:59:32.427Z,5.37
2023-05-19T10:02:02.922Z,8.50
2023-05-19T10:04:31.672Z,6.00
2023-05-19T10:07:00.689Z,6.57
2023-05-19T10:09:30.812Z,5.90
2023-05-19T10:12:00.180Z,8.70
2023-05-19T10:14:29.289Z,7.03
2023-05-19T10:16:58.997Z,6.47
2023-05-19T10:19:28.805Z,7.37
2023-05-19T10:21:58.005Z,6.90
2023-05-19T10:24:26.527Z,3.93
2023-05-19T10:26:59.834Z,5.17
2023-05-19T10:29:31.689Z,6.40
2023-05-19T10:32:04.567Z,5.13
2023-05-19T10:35:08.846Z,6.33
2023-05-19T10:37:45.135Z,5.87
2023-05-19T10:40:20.811Z,4.80
2023-05-19T10:43:02.482Z,5.17
2023-05-19T10:45:35.818Z,4.17
2023-05-19T10:48:04.578Z,3.67
2023-05-19T10:50:37.735Z,4.77
2023-05-19T10:53:06.199Z,5.07
2023-05-19T10:55:48.664Z,6.77
2023-05-19T10:58:38.977Z,5.67
2023-05-19T11:01:14.239Z,7.13
2023-05-19T11:03:50.655Z,4.93
2023-05-19T11:06:25.952Z,7.13
2023-05-19T11:08:55.629Z,3.83
2023-05-19T11:11:23.794Z,5.43
2023-05-19T11:13:56.829Z,5.00
2023-05-19T11:16:33.241Z,6.50
2023-05-19T11:19:01.917Z,5.63
2023-05-19T11:21:43.798Z,5.57
2023-05-19T11:24:12.013Z,7.37
2023-05-19T11:26:44.284Z,5.53
2023-05-19T11:29:14.029Z,3.70
2023-05-19T11:31:45.427Z,5.77
2023-05-19T11:34:14.041Z,6.27
2023-05-19T11:36:43.933Z,5.73
2023-05-19T11:39:13.538Z,5.93
2023-05-19T11:41:41.702Z,3.57
2023-05-19T11:44:13.045Z,3.73
2023-05-19T11:46:41.243Z,4.57
2023-05-19T11:49:10.293Z,3.83
2023-05-19T11:51:38.453Z,4.70
2023-05-19T11:54:06.882Z,7.87
2023-05-19T11:56:36.758Z,3.70
2023-05-19T11:59:04.980Z,4.80
2023-05-19T12:01:35.050Z,3.70
2023-05-19T12:04:03.344Z,5.97
2023-05-19T12:06:31.825Z,4.63
2023-05-19T12:09:00.008Z,4.50
2023-05-19T12:11:29.864Z,4.47
2023-05-19T12:14:00.287Z,6.93
2023-05-19T12:16:36.681Z,5.70
2023-05-19T12:19:07.281Z,6.27
2023-05-19T12:21:35.731Z,5.07
2023-05-19T12:24:04.251Z,3.93
2023-05-19T12:26:32.312Z,4.47
2023-05-19T12:29:00.370Z,6.53
2023-05-19T12:31:28.507Z,5.87
2023-05-19T12:33:58.588Z,4.87
2023-05-19T12:36:26.745Z,4.53
2023-05-19T12:38:55.791Z,4.47
2023-05-19T12:41:27.300Z,4.87
2023-05-19T12:43:56.050Z,7.20
2023-05-19T12:46:24.219Z,3.80
2023-05-19T12:48:52.408Z,2.80
2023-05-19T12:51:22.167Z,3.87
2023-05-19T12:53:51.685Z,4.33
2023-05-19T12:56:19.735Z,3.70
2023-05-19T12:58:47.835Z,4.73
2023-05-19T13:01:19.910Z,3.97
2023-05-19T13:03:48.623Z,4.00
2023-05-19T13:06:16.961Z,2.93
2023-05-19T13:08:48.389Z,2.20
2023-05-19T13:11:16.597Z,3.17
2023-05-19T13:13:45.266Z,2.10
2023-05-19T13:16:13.546Z,2.80
2023-05-19T13:18:41.690Z,3.30
2023-05-19T13:21:10.252Z,3.50
2023-05-19T13:23:38.304Z,3.67
2023-05-19T13:26:07.844Z,3.87
2023-05-19T13:28:35.992Z,3.77
2023-05-19T13:31:04.126Z,4.77
2023-05-19T13:33:32.269Z,4.13
2023-05-19T13:36:00.315Z,3.43
2023-05-19T13:38:30.427Z,4.50
2023-05-19T13:40:58.622Z,4.17
2023-05-19T13:43:28.061Z,3.03
2023-05-19T13:45:56.312Z,3.80
2023-05-19T13:48:24.442Z,3.33
2023-05-19T13:50:54.405Z,2.87
2023-05-19T13:53:22.761Z,4.10
2023-05-19T13:55:52.964Z,2.73
2023-05-19T13:58:21.057Z,2.17
2023-05-19T14:00:54.567Z,4.03
2023-05-19T14:03:22.834Z,3.47
2023-05-19T14:05:50.993Z,4.53
2023-05-19T14:08:19.598Z,2.97
2023-05-19T14:10:47.676Z,3.13
2023-05-19T14:13:31.592Z,4.47
2023-05-19T14:16:02.601Z,4.43
2023-05-19T14:18:32.416Z,4.87
2023-05-19T14:21:00.480Z,6.47
2023-05-19T14:23:30.204Z,3.50
2023-05-19T14:25:58.265Z,4.47
2023-05-19T14:28:26.615Z,3.20
2023-05-19T14:30:54.695Z,3.47
2023-05-19T14:33:24.166Z,4.00
2023-05-19T14:35:52.622Z,4.00
2023-05-19T14:38:20.707Z,3.20
2023-05-19T14:40:49.157Z,2.83
2023-05-19T14:43:17.252Z,5.87
2023-05-19T14:45:46.336Z,3.63
2023-05-19T14:48:14.496Z,3.20
2023-05-19T14:50:44.078Z,3.60
2023-05-19T14:53:12.256Z,3.23
2023-05-19T14:55:40.793Z,4.83
2023-05-19T14:58:23.631Z,3.23
2023-05-19T15:00:55.697Z,2.80
2023-05-19T15:03:24.315Z,3.00
2023-05-19T15:05:53.760Z,2.43
2023-05-19T15:08:21.839Z,3.07
2023-05-19T15:10:50.219Z,3.40
2023-05-19T15:13:19.106Z,3.10
2023-05-19T15:15:47.487Z,4.30
2023-05-19T15:18:18.637Z,2.40
2023-05-19T15:20:46.813Z,2.73
2023-05-19T15:23:16.258Z,4.23
2023-05-19T15:25:45.546Z,4.23
2023-05-19T15:28:14.177Z,4.60
2023-05-19T15:30:43.259Z,3.10
2023-05-19T15:33:11.687Z,3.23
2023-05-19T15:35:39.885Z,3.33
2023-05-19T15:38:07.963Z,3.00
2023-05-19T15:40:37.425Z,2.43
2023-05-19T15:43:05.474Z,3.43
2023-05-19T15:45:33.537Z,3.50
2023-05-19T15:48:01.692Z,2.97
2023-05-19T15:50:30.081Z,2.90
2023-05-19T15:52:58.130Z,2.77
2023-05-19T15:55:26.219Z,3.37
2023-05-19T15:57:55.679Z,2.53
2023-05-19T16:00:23.821Z,3.40
2023-05-19T16:02:51.956Z,3.30
2023-05-19T16:05:20.393Z,2.60
2023-05-19T16:07:48.445Z,3.53
2023-05-19T16:10:16.794Z,4.90
2023-05-19T16:12:44.841Z,4.53
2023-05-19T16:15:14.615Z,2.60
2023-05-19T16:17:42.825Z,3.07
2023-05-19T16:20:12.194Z,2.77
2023-05-19T16:22:40.269Z,2.90
2023-05-19T16:25:09.340Z,2.87
2023-05-19T16:27:37.425Z,3.33
2023-05-19T16:30:05.999Z,3.50
2023-05-19T16:32:35.463Z,5.40
2023-05-19T16:35:03.554Z,2.30
2023-05-19T16:37:31.658Z,1.80
2023-05-19T16:39:59.832Z,5.03
2023-05-19T16:42:28.348Z,2.83
2023-05-19T16:44:56.561Z,3.10
2023-05-19T16:47:24.681Z,2.60
2023-05-19T16:49:54.120Z,2.73
2023-05-19T16:52:22.211Z,4.60
2023-05-19T16:54:50.337Z,2.60
2023-05-19T16:57:18.495Z,3.43
2023-05-19T16:59:46.556Z,2.90
2023-05-19T17:02:15.013Z,3.97
2023-05-19T17:04:43.060Z,3.93
2023-05-19T17:07:15.720Z,2.63
2023-05-19T17:09:43.898Z,3.63
2023-05-19T17:12:12.253Z,2.80
2023-05-19T17:14:42.264Z,2.80
2023-05-19T17:17:10.601Z,3.63
2023-05-19T17:19:38.775Z,2.77
2023-05-19T17:22:06.832Z,2.40
2023-05-19T17:24:36.541Z,4.47
2023-05-19T17:27:04.867Z,2.80
2023-05-19T17:29:32.921Z,3.83
2023-05-19T17:32:00.993Z,3.67
2023-05-19T17:34:30.080Z,4.23
2023-05-19T17:36:58.130Z,4.07
2023-05-19T17:39:26.183Z,3.03
2023-05-19T17:41:55.639Z,3.83
2023-05-19T17:44:23.682Z,2.80
2023-05-19T17:46:54.010Z,2.50
2023-05-19T17:49:23.075Z,3.70
2023-05-19T17:51:51.825Z,2.47
2023-05-19T17:54:21.997Z,2.77
2023-05-19T17:56:52.576Z,3.20
2023-05-19T17:59:22.566Z,2.83
2023-05-19T18:01:51.316Z,4.63
2023-05-19T18:04:19.983Z,2.57
2023-05-19T18:06:51.136Z,4.33
2023-05-19T18:09:20.904Z,3.97
2023-05-19T18:11:48.933Z,3.83
2023-05-19T18:14:16.993Z,5.30
2023-05-19T18:16:47.216Z,2.77
2023-05-19T18:19:15.502Z,2.53
2023-05-19T18:21:43.635Z,4.10
2023-05-19T18:24:11.716Z,4.00
2023-05-19T18:26:41.979Z,3.00
2023-05-19T18:29:10.836Z,3.23
2023-05-19T18:31:39.077Z,4.00
2023-05-19T18:34:08.551Z,3.17
2023-05-19T18:36:36.727Z,3.77
2023-05-19T18:39:05.459Z,2.57
2023-05-19T18:41:33.611Z,3.17
2023-05-19T18:44:01.662Z,5.47
2023-05-19T18:46:29.950Z,6.07
2023-05-19T18:48:58.120Z,2.63
2023-05-19T18:51:27.511Z,2.03
2023-05-19T18:53:55.566Z,4.60
2023-05-19T18:56:27.201Z,4.07
2023-05-19T18:58:55.807Z,3.77
2023-05-19T19:01:23.978Z,4.23
2023-05-19T19:03:52.155Z,2.43
2023-05-19T19:06:20.791Z,3.17
2023-05-19T19:08:50.475Z,3.47
2023-05-19T19:11:18.615Z,2.80
2023-05-19T19:13:47.011Z,3.67
2023-05-19T19:16:15.112Z,1.90
2023-05-19T19:18:43.276Z,2.60
2023-05-19T19:21:11.465Z,4.13
2023-05-19T19:23:39.599Z,3.03
2023-05-19T19:26:09.585Z,3.00
2023-05-19T19:28:37.979Z,2.40
2023-05-19T19:31:06.195Z,3.30
2023-05-19T19:33:34.248Z,3.23
2023-05-19T19:36:02.461Z,5.07
2023-05-19T19:38:30.544Z,1.83
2023-05-19T19:40:58.619Z,2.80
2023-05-19T19:43:28.047Z,3.50
2023-05-19T19:46:01.101Z,3.10
2023-05-19T19:48:29.513Z,1.50
2023-05-19T19:50:58.510Z,2.10
2023-05-19T19:53:26.677Z,3.70
2023-05-19T19:55:58.614Z,2.67
2023-05-19T19:58:28.926Z,1.90
2023-05-19T20:00:58.277Z,2.40
2023-05-19T20:03:27.064Z,3.87
2023-05-19T20:05:57.016Z,2.73
2023-05-19T20:08:25.585Z,3.23
2023-05-19T20:10:54.416Z,1.83
2023-05-19T20:13:22.563Z,2.17
2023-05-19T20:15:52.064Z,3.47
2023-05-19T20:18:20.201Z,2.57
2023-05-19T20:20:48.370Z,1.50
2023-05-19T20:23:16.403Z,3.03
2023-05-19T20:26:02.472Z,2.53
2023-05-19T20:28:32.514Z,2.73
2023-05-19T20:31:01.938Z,1.80
2023-05-19T20:33:29.987Z,2.73
2023-05-19T20:35:58.047Z,3.03
2023-05-19T20:38:26.128Z,2.40
2023-05-19T20:40:55.052Z,2.40
2023-05-19T20:43:23.116Z,4.07
2023-05-19T20:45:51.382Z,2.97
2023-05-19T20:48:20.965Z,2.63
2023-05-19T20:50:49.033Z,4.97
2023-05-19T20:53:17.116Z,2.77
2023-05-19T20:55:46.193Z,3.07
2023-05-19T20:58:14.603Z,2.13
2023-05-19T21:00:42.688Z,3.97
2023-05-19T21:03:12.562Z,3.80
2023-05-19T21:05:42.012Z,4.17
2023-05-19T21:08:12.848Z,2.43
2023-05-19T21:10:41.658Z,3.30
2023-05-19T21:13:09.904Z,2.23
2023-05-19T21:15:38.008Z,2.53
2023-05-19T21:18:06.145Z,3.57
2023-05-19T21:20:34.669Z,2.13
2023-05-19T21:23:04.387Z,2.30
2023-05-19T21:25:32.863Z,2.90
2023-05-19T21:28:01.130Z,3.97
2023-05-19T21:30:29.208Z,4.67
2023-05-19T21:32:57.366Z,3.37
2023-05-19T21:35:25.567Z,2.40
2023-05-19T21:37:53.678Z,2.77
2023-05-19T21:40:23.255Z,2.43
2023-05-19T21:42:51.327Z,3.00
2023-05-19T21:45:19.349Z,3.07
2023-05-19T21:47:47.572Z,3.93
2023-05-19T21:50:17.451Z,2.93
2023-05-19T21:52:45.622Z,2.43
2023-05-19T21:55:13.661Z,2.97
2023-05-19T21:57:43.058Z,3.37
2023-05-19T22:00:13.273Z,2.70
2023-05-19T22:02:42.042Z,3.03
2023-05-19T22:05:10.948Z,1.60
2023-05-19T22:07:39.198Z,2.03
2023-05-19T22:10:08.179Z,4.70
2023-05-19T22:12:36.272Z,3.47
2023-05-19T22:15:06.677Z,3.33
2023-05-19T22:17:34.840Z,3.60
2023-05-19T22:20:02.937Z,3.33
2023-05-19T22:22:31.062Z,2.43
2023-05-19T22:24:59.383Z,3.07
2023-05-19T22:27:27.465Z,2.53
2023-05-19T22:29:55.526Z,3.17
2023-05-19T22:32:25.089Z,3.07
2023-05-19T22:34:53.506Z,3.00
2023-05-19T22:37:24.046Z,4.33
2023-05-19T22:39:52.293Z,4.07
2023-05-19T22:42:20.391Z,2.50
2023-05-19T22:44:49.035Z,2.60
2023-05-19T22:47:17.125Z,1.90
2023-05-19T22:49:46.804Z,1.90
2023-05-19T22:52:14.875Z,2.30
2023-05-19T22:54:43.046Z,1.73
2023-05-19T22:57:11.435Z,2.63
2023-05-19T22:59:40.047Z,2.80
2023-05-19T23:02:08.130Z,3.33
2023-05-19T23:04:36.780Z,2.30
2023-05-19T23:07:06.455Z,2.47
2023-05-19T23:09:34.497Z,1.60
2023-05-19T23:12:02.554Z,2.53
2023-05-19T23:14:31.583Z,4.07
2023-05-19T23:16:59.679Z,1.97
2023-05-19T23:19:29.182Z,2.30
2023-05-19T23:21:57.307Z,2.57
2023-05-19T23:24:26.877Z,2.37
2023-05-19T23:26:55.276Z,1.77
2023-05-19T23:29:23.353Z,3.07
2023-05-19T23:31:51.494Z,3.47
2023-05-19T23:34:19.680Z,2.70
2023-05-19T23:36:47.752Z,1.83
2023-05-19T23:39:15.796Z,2.67
2023-05-19T23:41:45.237Z,2.00
2023-05-19T23:44:13.340Z,2.40
2023-05-19T23:46:41.474Z,3.87
2023-05-19T23:49:09.662Z,3.03
2023-05-19T23:51:37.757Z,3.17
2023-05-19T23:54:05.823Z,2.07
2023-05-19T23:56:33.877Z,2.03
2023-05-19T23:59:03.340Z,2.00
